ESSV/VBY METAR and TAF weather

Enter ICAO airport designator
Station Type Date Time Source
ESSV METAR 2019/05/26 01:50 UTC NOAA

ESSV 260150Z AUTO 23015KT 9999 NCD 11/06 Q1003


Station Type Date Time Source
ESSV Decoded METAR 2019/05/26 01:50 UTC NOAA

Visby Flygplats, Sweden (ESSV) 57-40N 018-21E 47M
May 25, 2019 - 09:50 PM EDT / 2019.05.26 0150 UTC
Wind: from the SW (230 degrees) at 17 MPH (15 KT):0
Visibility: greater than 7 mile(s):0
Temperature: 51 F (11 C)
Dew Point: 42 F (6 C)
Relative Humidity: 71%
Pressure (altimeter): 29.62 in. Hg (1003 hPa)
ob: ESSV 260150Z AUTO 23015KT 9999 NCD 11/06 Q1003
cycle: 2

Station Type Date Time Source
ESSV TAF 2017/09/20 09:39 UTC NOAA

TAF COR TAF COR ESSV 200840Z 2009/2021 10005KT 9999 BKN030 PROB40 2009/2016 4000 TS SHRA BKN015CB

Example: see airport list